Current Conditions

Updated: 23-Feb-2018 2:11 PM  
Summary / Temperature Wind Rain






Feels like: 53°F

1-hour difference
0.8°F 0.8°F warmer than last hour.

24-hour difference
5.4°F5.4°F colder than yesterday at this time.

  Today Yesterday
High: 53.1°F
2:01 PM
58.9°F
1:42 PM
Low: 34.1°F
7:02 AM
30.0°F
3:38 AM
Wind from NW NW
2.7
Gust:  3.0 mph
1 Beaufort - Light Air

Today: 9.2 - 9:55 AM
Month: 18.4 mph - Feb 18
Rain Today: 0.01 in
Current Rate (/hr): 0.000 in
Max Rate (/hr):
Rain Yesterday: 0.02 in
Storm Rain: 0.03 in
This Month: 0.04 in
Season Total: 2.03 in
Last Rain Event: Today
Humidity / Barometer Sun / Moon
Humidity: 43 Decreased 10.0% in the last hour.
Dew Point: 30.8°F Decreased 4.3°F in the last hour.
Barometer: 30.305 inHg  
Baro Trend: Steady
Sunrise: 6:34 AM
Sunset: 5:44 PM
Moonrise: 11:34 AM
Moonset: 12:47 AM
Sky Conditions UV Index
Summary: Clear
Visibility: 10 miles
Clouds: None
KVIS - 1:56 PM PST
  Currently unavailable  
Friday: 3.1  Moderate 
Saturday: 3.4  Moderate 
Air Quality Fire Danger
 Good 
Ozone 37 ppb
PM 2.5 4 μg/m3
2:10 PM PST
Current: 26  Low 

Local Alerts Local Forecast
Local NWS Alerts
Today

Partly
Cloudy
High 52
Tonight

Mostly
Clear
Low 28
Sat

Mostly
Sunny
High 57
Sat night

Mostly
Clear
Low 29
Sun

Mostly
Sunny
High 59
Sun night

Rain
Showers
Low 31
Mon

Rain
Showers
High 57

Local Radar Local Satellite Neighborhood Cam Sky Cam
Local Radar Local Satellite Neighborhood Cam Sky Cam


Nearby Personal Stations

Weather Underground PWS KCAEXETE7     Weather Underground PWS KCAEXETE6     Weather Underground PWS KCAEXETE11

Nearby Airport Stations

KVIS - Visalia, California, USA
Distance from station: W 14mi, 23km
Updated: Fri, 23-Feb-2018 1:56pm PST
Clear
Clear
 Wind from WNW
Wind: WNW 8 mph , 13 km/h
Temperature: 54°F , 12°C
Dew Point: 27°F , -3°C
Humidity: 35%
Barometer: 30.30 inHg , 1026.1 hPa
Clouds: Clear
Visibility: 10 miles , 16 km
2018/02/23 21:56 KVIS 232156Z AUTO 30007KT 10SM CLR 12/M03 A3030 RMK AO2 SLPNO T01171028
KPTV - Porterville, California, USA
Distance from station: SSE 19mi, 31km
Updated: Fri, 23-Feb-2018 1:56pm PST
Mostly cloudy
Mostly cloudy
 Wind from NW
Wind: NW 15 mph , 24 km/h, Gust: 21 mph , 33 km/h
Temperature: 52°F , 11°C
Dew Point: 28°F , -2°C
Humidity: 41%
Barometer: 30.29 inHg , 1025.7 hPa
Clouds: Mostly cloudy
Visibility: 10 miles , 16 km
Cloud details: Mostly cloudy 4700 ft
2018/02/23 21:56 KPTV 232156Z AUTO 32013G18KT 10SM BKN047 11/M02 A3029 RMK AO2 SLP273 T01111017

Metar display script from Saratoga-Weather.org



Visitor Map